Time;durP1;ratioP1;P1;durP2;ratioP2;P2;SDS_P1;SDS_P2;PMS_P1;PMS_P2;Temp;Humidity;BMP_temperature;BMP_pressure;BME280_temperature;BME280_humidity;BME280_pressure;Samples;Min_cycle;Max_cycle;Signal;HPM_P1;HPM_P2
2024/02/20 00:01:15;;;;;;;1.73;1.02;;;9.40;85.20;;;;;;4978247;28;20093;-62
2024/02/20 00:03:41;;;;;;;1.30;1.00;;;9.40;85.20;;;;;;4983084;28;20045;-61
2024/02/20 00:06:07;;;;;;;1.00;0.98;;;9.40;85.10;;;;;;4984083;28;20058;-60
2024/02/20 00:08:32;;;;;;;1.38;0.75;;;9.30;85.00;;;;;;4992377;28;20116;-62
2024/02/20 00:10:59;;;;;;;1.25;0.77;;;9.40;85.20;;;;;;4981997;28;20122;-62
2024/02/20 00:13:25;;;;;;;1.25;0.70;;;9.30;85.00;;;;;;4986832;28;20121;-62
2024/02/20 00:15:50;;;;;;;1.00;0.68;;;9.30;85.00;;;;;;4977456;28;20114;-59
2024/02/20 00:18:16;;;;;;;1.08;0.60;;;9.30;85.00;;;;;;4983662;28;20498;-61
2024/02/20 00:20:44;;;;;;;1.20;0.70;;;9.30;85.00;;;;;;4981537;28;20030;-61
2024/02/20 00:23:11;;;;;;;1.83;0.93;;;9.30;85.00;;;;;;4983880;28;20034;-60
2024/02/20 00:25:37;;;;;;;0.90;0.75;;;9.30;85.10;;;;;;4987050;28;20498;-61
2024/02/20 00:28:02;;;;;;;1.20;0.75;;;9.30;85.10;;;;;;4978497;28;20109;-61
2024/02/20 00:30:28;;;;;;;1.05;0.60;;;9.20;85.10;;;;;;4979760;28;20422;-61
2024/02/20 00:32:53;;;;;;;1.70;0.90;;;9.30;85.20;;;;;;4978837;28;20515;-62
2024/02/20 00:35:19;;;;;;;1.00;0.80;;;9.30;85.20;;;;;;4988079;28;20406;-60
2024/02/20 00:37:45;;;;;;;1.50;1.02;;;9.30;85.20;;;;;;4985920;28;20088;-61
2024/02/20 00:40:11;;;;;;;2.72;1.20;;;9.30;85.10;;;;;;4986810;28;20041;-61
2024/02/20 00:42:36;;;;;;;2.10;1.20;;;9.40;85.10;;;;;;4978223;28;20042;-61
2024/02/20 00:45:04;;;;;;;3.65;1.90;;;9.30;85.00;;;;;;4981176;28;20035;-60
2024/02/20 00:47:29;;;;;;;2.90;1.75;;;9.30;85.00;;;;;;4984480;28;20049;-61
2024/02/20 00:49:55;;;;;;;1.90;1.52;;;9.30;85.00;;;;;;4981526;28;20039;-62
2024/02/20 00:52:21;;;;;;;3.08;1.40;;;9.30;85.00;;;;;;4980909;28;20039;-61
2024/02/20 00:54:46;;;;;;;1.05;0.80;;;9.30;85.00;;;;;;4976971;28;20081;-61
2024/02/20 00:57:12;;;;;;;0.93;0.90;;;9.20;84.90;;;;;;4980984;28;20445;-62
2024/02/20 00:59:38;;;;;;;0.98;0.80;;;9.20;85.20;;;;;;4979139;28;20042;-61
2024/02/20 01:02:10;;;;;;;0.80;0.80;;;9.10;85.20;;;;;;4980615;28;20031;-61
2024/02/20 01:04:37;;;;;;;2.05;0.82;;;9.10;85.30;;;;;;4978208;28;20371;-61
2024/02/20 01:07:03;;;;;;;3.65;1.85;;;9.10;85.50;;;;;;4972343;28;20562;-61
2024/02/20 01:09:28;;;;;;;2.30;1.63;;;9.00;85.50;;;;;;4982656;28;20126;-60
2024/02/20 01:11:54;;;;;;;2.00;1.30;;;9.10;85.50;;;;;;4985167;28;20062;-61
2024/02/20 01:14:19;;;;;;;2.65;1.17;;;9.10;85.50;;;;;;4984935;28;20469;-61
2024/02/20 01:16:45;;;;;;;3.55;1.42;;;9.00;85.40;;;;;;4977978;28;20038;-61
2024/02/20 01:19:11;;;;;;;3.65;1.80;;;9.00;85.40;;;;;;4978164;28;20079;-62
2024/02/20 01:21:36;;;;;;;3.55;1.80;;;9.00;85.30;;;;;;4980532;28;20054;-61
2024/02/20 01:24:02;;;;;;;2.70;1.70;;;9.00;85.30;;;;;;4982870;28;20049;-60
2024/02/20 01:26:27;;;;;;;5.00;1.65;;;9.00;85.40;;;;;;4980828;28;20038;-60
2024/02/20 01:28:53;;;;;;;2.97;1.50;;;9.00;85.40;;;;;;4977134;28;20027;-61
2024/02/20 01:31:18;;;;;;;2.05;1.63;;;9.00;85.50;;;;;;4975966;28;20038;-60
2024/02/20 01:33:44;;;;;;;2.10;1.65;;;9.00;85.50;;;;;;4980263;28;20137;-60
2024/02/20 01:36:10;;;;;;;3.03;1.40;;;9.00;85.50;;;;;;4984707;28;20041;-61
2024/02/20 01:38:35;;;;;;;3.13;1.40;;;9.00;85.40;;;;;;4986433;28;20038;-61
2024/02/20 01:41:02;;;;;;;2.88;1.33;;;9.00;85.40;;;;;;4978029;28;20031;-61
2024/02/20 01:43:28;;;;;;;1.52;1.15;;;9.00;85.40;;;;;;4975690;28;20115;-61
2024/02/20 01:45:54;;;;;;;1.70;1.35;;;9.00;85.30;;;;;;4976707;28;20031;-62
2024/02/20 01:48:19;;;;;;;2.35;1.40;;;9.00;85.40;;;;;;4984386;28;20108;-61
2024/02/20 01:50:45;;;;;;;2.13;1.67;;;9.00;85.50;;;;;;4980593;28;20449;-62
2024/02/20 01:53:11;;;;;;;2.22;1.70;;;9.00;85.50;;;;;;4985219;28;20089;-61
2024/02/20 01:55:38;;;;;;;3.17;1.70;;;9.00;85.50;;;;;;4975580;28;20038;-61
2024/02/20 01:58:04;;;;;;;1.63;1.42;;;9.00;85.40;;;;;;4979747;28;20502;-61
2024/02/20 02:00:29;;;;;;;3.42;1.52;;;9.00;85.30;;;;;;4984105;28;20037;-61
2024/02/20 02:02:55;;;;;;;2.95;1.15;;;9.00;85.30;;;;;;4980323;28;20062;-61
2024/02/20 02:05:21;;;;;;;1.38;1.20;;;9.00;85.30;;;;;;4984673;28;20050;-61
2024/02/20 02:07:50;;;;;;;1.73;1.38;;;9.00;85.30;;;;;;4982486;28;20518;-60
2024/02/20 02:10:16;;;;;;;1.80;1.50;;;9.00;85.50;;;;;;4983834;28;20031;-60
2024/02/20 02:12:42;;;;;;;2.13;1.50;;;9.00;85.30;;;;;;4981041;28;20029;-61
2024/02/20 02:15:08;;;;;;;1.50;1.27;;;9.00;85.40;;;;;;4983746;28;20066;-61
2024/02/20 02:17:34;;;;;;;2.95;1.30;;;9.00;85.50;;;;;;4986629;28;20375;-61
2024/02/20 02:20:00;;;;;;;2.85;1.10;;;9.00;85.50;;;;;;4984770;28;20034;-61
2024/02/20 02:22:25;;;;;;;1.80;1.20;;;8.90;85.70;;;;;;4992938;28;20061;-62
2024/02/20 02:24:51;;;;;;;2.40;1.05;;;8.90;85.70;;;;;;4990580;28;20027;-62
2024/02/20 02:27:16;;;;;;;1.60;1.30;;;8.90;85.90;;;;;;4987280;28;20031;-61
2024/02/20 02:29:42;;;;;;;2.17;1.35;;;8.90;86.00;;;;;;4985730;28;20335;-62
2024/02/20 02:32:08;;;;;;;2.67;1.33;;;8.90;86.10;;;;;;4984826;28;20171;-61
2024/02/20 02:34:33;;;;;;;1.60;1.23;;;8.90;86.10;;;;;;4986728;28;20034;-62
2024/02/20 02:36:59;;;;;;;1.73;1.08;;;8.90;86.10;;;;;;4983628;28;20443;-62
2024/02/20 02:39:26;;;;;;;1.30;1.20;;;9.00;86.20;;;;;;4984290;28;20039;-61
2024/02/20 02:41:52;;;;;;;2.03;1.40;;;8.90;86.20;;;;;;4981976;28;20031;-60
2024/02/20 02:44:18;;;;;;;1.30;1.20;;;8.90;86.20;;;;;;4987081;28;20030;-61
2024/02/20 02:46:44;;;;;;;1.55;1.38;;;8.90;86.30;;;;;;4986422;28;20509;-61
2024/02/20 02:49:10;;;;;;;1.42;1.20;;;8.90;86.40;;;;;;4980661;28;20031;-62
2024/02/20 02:51:36;;;;;;;1.48;1.13;;;8.90;86.40;;;;;;4983338;28;20030;-59
2024/02/20 02:54:02;;;;;;;2.83;1.45;;;8.90;86.50;;;;;;4984525;28;20038;-61
2024/02/20 02:56:31;;;;;;;1.40;1.30;;;8.90;86.60;;;;;;4988166;28;20077;-61
2024/02/20 02:58:58;;;;;;;2.42;1.40;;;8.90;86.80;;;;;;4981468;28;20538;-62
2024/02/20 03:01:25;;;;;;;3.35;1.88;;;8.90;86.70;;;;;;4981112;28;20046;-62
2024/02/20 03:03:51;;;;;;;3.15;1.75;;;8.90;86.70;;;;;;4978862;28;20082;-61
2024/02/20 03:06:17;;;;;;;2.97;1.70;;;8.90;86.70;;;;;;4981661;28;20027;-61
2024/02/20 03:08:45;;;;;;;2.20;1.50;;;8.90;86.70;;;;;;4989450;28;20030;-61
2024/02/20 03:11:14;;;;;;;2.22;1.20;;;8.90;87.10;;;;;;4985299;28;20038;-62
2024/02/20 03:13:41;;;;;;;3.30;1.20;;;8.90;86.90;;;;;;4984052;28;20045;-59
2024/02/20 03:16:06;;;;;;;1.92;1.02;;;8.90;86.80;;;;;;4986936;28;20035;-61
2024/02/20 03:18:34;;;;;;;1.60;1.50;;;8.90;86.70;;;;;;4986054;28;20043;-61
2024/02/20 03:21:00;;;;;;;1.45;1.35;;;8.90;86.80;;;;;;4985562;28;20052;-61
2024/02/20 03:23:27;;;;;;;1.20;1.02;;;8.90;86.90;;;;;;4985677;28;20031;-61
2024/02/20 03:25:53;;;;;;;1.10;1.00;;;8.90;87.10;;;;;;4990516;28;20026;-62
2024/02/20 03:28:19;;;;;;;0.95;0.90;;;8.80;87.20;;;;;;4983304;28;20045;-62
2024/02/20 03:30:44;;;;;;;1.55;0.80;;;8.80;87.40;;;;;;4986768;28;20062;-62
2024/02/20 03:33:10;;;;;;;1.45;0.73;;;8.80;87.60;;;;;;4984905;28;20510;-59
2024/02/20 03:35:36;;;;;;;1.75;0.90;;;8.70;87.80;;;;;;4984210;28;20026;-61
2024/02/20 03:38:02;;;;;;;1.10;0.88;;;8.70;87.90;;;;;;4983570;28;20482;-60
2024/02/20 03:40:27;;;;;;;1.17;1.00;;;8.70;88.10;;;;;;4986199;28;20064;-62
2024/02/20 03:42:53;;;;;;;1.60;0.90;;;8.60;88.30;;;;;;4982510;28;20034;-59
2024/02/20 03:45:19;;;;;;;0.85;0.80;;;8.60;88.50;;;;;;4982715;28;20394;-62
2024/02/20 03:47:45;;;;;;;1.60;1.00;;;8.60;88.60;;;;;;4984804;28;20170;-60
2024/02/20 03:50:10;;;;;;;1.17;1.00;;;8.60;88.80;;;;;;4986677;28;20093;-60
2024/02/20 03:52:36;;;;;;;1.63;0.93;;;8.60;88.90;;;;;;4984552;28;20030;-61
2024/02/20 03:55:01;;;;;;;3.50;1.05;;;8.60;89.00;;;;;;4983657;28;20026;-61
2024/02/20 03:57:27;;;;;;;1.42;1.20;;;8.60;89.00;;;;;;4984527;28;20698;-59
2024/02/20 03:59:56;;;;;;;1.10;1.00;;;8.60;89.00;;;;;;4986176;28;20042;-60
2024/02/20 04:02:23;;;;;;;1.55;1.35;;;8.60;89.10;;;;;;4981798;28;20037;-61
2024/02/20 04:04:49;;;;;;;1.42;1.23;;;8.60;89.20;;;;;;4984670;28;20035;-61
2024/02/20 04:07:14;;;;;;;2.35;1.60;;;8.60;89.20;;;;;;4980526;28;20593;-61
2024/02/20 04:09:41;;;;;;;2.35;1.58;;;8.60;89.20;;;;;;4985368;28;20030;-61
2024/02/20 04:12:07;;;;;;;1.27;1.17;;;8.60;90.00;;;;;;4986396;28;20057;-60
2024/02/20 04:14:33;;;;;;;2.22;1.58;;;8.60;89.20;;;;;;4987159;28;20058;-61
2024/02/20 04:16:58;;;;;;;1.55;1.45;;;8.60;89.30;;;;;;4986027;28;20093;-60
2024/02/20 04:19:24;;;;;;;1.58;1.48;;;8.60;89.40;;;;;;4981108;28;20093;-60
2024/02/20 04:21:49;;;;;;;2.38;1.30;;;8.60;89.30;;;;;;4981367;28;20243;-60
2024/02/20 04:24:15;;;;;;;2.05;1.17;;;8.60;89.30;;;;;;4982586;28;20046;-62
2024/02/20 04:26:41;;;;;;;1.35;1.25;;;8.60;89.30;;;;;;4982243;28;20035;-59
2024/02/20 04:29:06;;;;;;;1.20;1.10;;;8.60;89.30;;;;;;4982107;28;21472;-62
2024/02/20 04:31:32;;;;;;;1.83;1.20;;;8.60;89.30;;;;;;4981636;28;20031;-56
2024/02/20 04:33:58;;;;;;;2.50;1.67;;;8.60;89.30;;;;;;4982521;28;20039;-61
2024/02/20 04:36:23;;;;;;;1.75;1.50;;;8.60;89.30;;;;;;4983927;28;20030;-61
2024/02/20 04:38:56;;;;;;;2.33;1.67;;;8.60;89.20;;;;;;4988206;28;20035;-61
2024/02/20 04:41:25;;;;;;;3.72;2.17;;;8.60;89.20;;;;;;4980146;28;20034;-59
2024/02/20 04:43:51;;;;;;;4.32;2.22;;;8.60;89.10;;;;;;4981001;28;20031;-62
2024/02/20 04:46:16;;;;;;;2.05;1.60;;;8.60;88.80;;;;;;4982852;28;20031;-61
2024/02/20 04:48:42;;;;;;;2.58;1.52;;;8.60;88.80;;;;;;4980492;28;20031;-60
2024/02/20 04:51:07;;;;;;;1.83;1.70;;;8.60;88.80;;;;;;4984722;28;20466;-61
2024/02/20 04:53:33;;;;;;;3.40;1.90;;;8.60;88.80;;;;;;4985222;28;20041;-61
2024/02/20 04:55:59;;;;;;;1.90;1.63;;;8.60;88.80;;;;;;4983138;28;20039;-60
2024/02/20 04:58:24;;;;;;;3.20;1.85;;;8.50;88.60;;;;;;4984127;28;20030;-61
2024/02/20 05:00:50;;;;;;;2.28;2.08;;;8.50;88.60;;;;;;4980523;28;20039;-61
2024/02/20 05:03:16;;;;;;;3.95;2.20;;;8.50;88.60;;;;;;4984764;28;20125;-61
2024/02/20 05:05:42;;;;;;;3.25;1.80;;;8.50;88.80;;;;;;4981365;28;20137;-62
2024/02/20 05:08:07;;;;;;;2.90;1.98;;;8.40;88.80;;;;;;4979970;28;20109;-61
2024/02/20 05:10:33;;;;;;;4.30;1.90;;;8.40;88.80;;;;;;4982331;28;20498;-59
2024/02/20 05:12:59;;;;;;;4.75;2.35;;;8.40;88.80;;;;;;4984341;28;20034;-61
2024/02/20 05:15:24;;;;;;;5.55;1.90;;;8.40;88.80;;;;;;4982007;28;20113;-62
2024/02/20 05:17:50;;;;;;;4.07;2.38;;;8.40;89.00;;;;;;4980506;28;20066;-61
2024/02/20 05:20:15;;;;;;;4.60;2.40;;;8.30;89.00;;;;;;4979839;28;20042;-62
2024/02/20 05:22:41;;;;;;;4.13;2.42;;;8.30;89.00;;;;;;4984058;28;20158;-61
2024/02/20 05:25:07;;;;;;;3.25;2.20;;;8.30;89.10;;;;;;4982870;28;20026;-61
2024/02/20 05:27:33;;;;;;;3.55;2.10;;;8.30;89.00;;;;;;4985361;28;20042;-61
2024/02/20 05:29:58;;;;;;;4.35;2.03;;;8.20;88.80;;;;;;4983585;28;20042;-60
2024/02/20 05:32:24;;;;;;;3.60;1.90;;;8.20;88.80;;;;;;4983727;28;20030;-61
2024/02/20 05:34:49;;;;;;;3.63;2.33;;;8.20;88.70;;;;;;4981336;28;20577;-62
2024/02/20 05:37:15;;;;;;;2.70;1.90;;;8.20;88.60;;;;;;4982927;28;20046;-61
2024/02/20 05:39:40;;;;;;;2.90;2.00;;;8.20;88.60;;;;;;4981517;28;20030;-61
2024/02/20 05:42:07;;;;;;;4.15;2.10;;;8.10;88.30;;;;;;4982006;28;20027;-60
2024/02/20 05:44:32;;;;;;;3.63;2.00;;;8.10;88.30;;;;;;4982749;28;20030;-62
2024/02/20 05:46:58;;;;;;;4.68;1.90;;;8.10;88.30;;;;;;4983255;28;20039;-62
2024/02/20 05:49:24;;;;;;;2.25;1.65;;;8.10;88.30;;;;;;4984732;28;20033;-62
2024/02/20 05:51:49;;;;;;;4.40;2.13;;;8.10;88.30;;;;;;4981133;28;20042;-62
2024/02/20 05:54:15;;;;;;;3.35;2.08;;;8.10;88.30;;;;;;4983367;28;20050;-61
2024/02/20 05:56:43;;;;;;;2.92;1.95;;;8.10;88.30;;;;;;4980929;28;20033;-59
2024/02/20 05:59:08;;;;;;;4.32;2.03;;;8.10;88.50;;;;;;4981785;28;20344;-61
2024/02/20 06:01:34;;;;;;;3.53;2.10;;;8.10;88.60;;;;;;4983298;28;20027;-61
2024/02/20 06:04:04;;;;;;;3.35;2.00;;;8.10;88.60;;;;;;4983319;28;20031;-62
2024/02/20 06:06:31;;;;;;;4.20;1.67;;;8.10;88.40;;;;;;4984494;28;20084;-60
2024/02/20 06:08:56;;;;;;;3.88;2.00;;;8.10;88.30;;;;;;4986905;28;20031;-61
2024/02/20 06:11:23;;;;;;;3.80;1.70;;;8.10;88.10;;;;;;4982649;28;20450;-61
2024/02/20 06:13:49;;;;;;;6.63;1.83;;;8.10;87.90;;;;;;4982786;28;20523;-61
2024/02/20 06:16:15;;;;;;;3.97;1.35;;;8.10;87.80;;;;;;4982503;28;20546;-60
2024/02/20 06:18:41;;;;;;;3.03;1.40;;;8.10;87.70;;;;;;4982107;28;20056;-62
2024/02/20 06:21:08;;;;;;;2.58;1.50;;;8.10;87.80;;;;;;4981761;28;20113;-61
2024/02/20 06:23:38;;;;;;;3.05;1.48;;;8.00;88.70;;;;;;4986431;28;20049;-61
2024/02/20 06:26:04;;;;;;;3.35;1.42;;;8.00;87.90;;;;;;4983269;28;20259;-61
2024/02/20 06:28:31;;;;;;;4.72;1.88;;;8.00;87.70;;;;;;4985355;28;20026;-62
2024/02/20 06:30:59;;;;;;;3.67;1.35;;;8.00;88.50;;;;;;4982536;28;20109;-62
2024/02/20 06:33:25;;;;;;;3.53;1.40;;;7.90;87.50;;;;;;4983765;28;20104;-61
2024/02/20 06:35:50;;;;;;;4.25;1.52;;;7.90;87.40;;;;;;4979514;28;20570;-62
2024/02/20 06:38:16;;;;;;;3.88;1.80;;;7.90;87.50;;;;;;4985228;28;20430;-60
2024/02/20 06:40:41;;;;;;;3.85;1.85;;;7.80;87.40;;;;;;4984668;28;20026;-60
2024/02/20 06:43:07;;;;;;;5.03;2.17;;;7.80;87.80;;;;;;4981384;28;20039;-61
2024/02/20 06:45:32;;;;;;;3.63;2.17;;;7.70;87.30;;;;;;4983148;28;20117;-61
2024/02/20 06:47:58;;;;;;;3.15;1.90;;;7.70;87.20;;;;;;4979498;28;20086;-61
2024/02/20 06:50:23;;;;;;;3.28;2.00;;;7.60;87.00;;;;;;4983552;28;20030;-62
2024/02/20 06:52:49;;;;;;;6.68;1.80;;;7.60;86.90;;;;;;4980194;28;20140;-63
2024/02/20 06:55:15;;;;;;;4.75;1.80;;;7.60;86.90;;;;;;4984919;28;20038;-61
2024/02/20 06:57:40;;;;;;;3.25;1.65;;;7.60;86.90;;;;;;4982427;28;20030;-62
2024/02/20 07:00:14;;;;;;;3.67;1.63;;;7.50;86.80;;;;;;4980632;28;20066;-61
2024/02/20 07:02:41;;;;;;;4.30;1.63;;;7.50;86.80;;;;;;4982188;28;20121;-60
2024/02/20 07:05:08;;;;;;;7.18;1.45;;;7.40;86.80;;;;;;4983507;28;20038;-61
2024/02/20 07:07:34;;;;;;;5.97;1.67;;;7.40;86.80;;;;;;4985486;28;20030;-62
2024/02/20 07:09:59;;;;;;;4.82;1.67;;;7.40;86.80;;;;;;4986808;28;20038;-61
2024/02/20 07:12:25;;;;;;;3.15;1.42;;;7.30;86.70;;;;;;4988643;28;20030;-62
2024/02/20 07:14:50;;;;;;;4.70;1.58;;;7.30;86.70;;;;;;4986729;28;20105;-61
2024/02/20 07:17:16;;;;;;;4.18;1.65;;;7.20;86.90;;;;;;4985897;28;20045;-61
2024/02/20 07:19:42;;;;;;;4.82;1.50;;;7.20;87.10;;;;;;4985940;28;20379;-61
2024/02/20 07:22:07;;;;;;;6.45;4.00;;;7.20;87.30;;;;;;4986401;28;20042;-60
2024/02/20 07:24:33;;;;;;;10.27;7.60;;;7.20;87.60;;;;;;4991313;28;20038;-61
2024/02/20 07:26:58;;;;;;;12.95;7.40;;;7.20;87.80;;;;;;4985729;28;20063;-60
2024/02/20 07:29:24;;;;;;;14.18;7.65;;;7.20;88.00;;;;;;4989658;28;20041;-62
2024/02/20 07:31:49;;;;;;;13.40;7.20;;;7.20;88.20;;;;;;4983228;28;20037;-62
2024/02/20 07:34:15;;;;;;;10.15;6.53;;;7.20;88.40;;;;;;4985916;28;20228;-62
2024/02/20 07:36:41;;;;;;;7.93;4.32;;;7.20;88.50;;;;;;4983418;28;20022;-61
2024/02/20 07:39:07;;;;;;;6.28;3.70;;;7.20;88.60;;;;;;4985254;28;20043;-62
2024/02/20 07:41:34;;;;;;;9.00;3.03;;;7.30;88.70;;;;;;4985813;28;20494;-61
2024/02/20 07:44:00;;;;;;;6.68;2.60;;;7.30;88.70;;;;;;4982555;28;20019;-58
2024/02/20 07:46:25;;;;;;;8.93;2.85;;;7.40;88.80;;;;;;4988512;28;20030;-60
2024/02/20 07:48:51;;;;;;;10.52;3.63;;;7.40;88.60;;;;;;4982320;28;20045;-62
2024/02/20 07:51:17;;;;;;;8.65;2.63;;;7.50;88.60;;;;;;4985332;28;20046;-61
2024/02/20 07:53:42;;;;;;;10.93;3.08;;;7.50;88.40;;;;;;4984335;28;20529;-61
2024/02/20 07:56:09;;;;;;;14.25;4.47;;;7.50;88.10;;;;;;4983232;28;20038;-62
2024/02/20 07:58:38;;;;;;;8.43;3.10;;;7.60;88.10;;;;;;4985442;28;20160;-62
2024/02/20 08:01:09;;;;;;;11.82;3.00;;;7.60;88.00;;;;;;4984602;28;20037;-61
2024/02/20 08:03:35;;;;;;;6.32;2.55;;;7.60;87.70;;;;;;4987404;28;20026;-61
2024/02/20 08:06:00;;;;;;;6.93;2.15;;;7.70;87.50;;;;;;4983348;28;20109;-61
2024/02/20 08:08:26;;;;;;;13.73;3.38;;;7.70;87.20;;;;;;4988076;28;20027;-61
2024/02/20 08:10:51;;;;;;;9.13;2.53;;;7.70;87.20;;;;;;4982534;28;20035;-60
2024/02/20 08:13:17;;;;;;;7.95;2.22;;;7.70;87.00;;;;;;4988577;28;20398;-61
2024/02/20 08:15:42;;;;;;;9.75;2.38;;;7.80;87.10;;;;;;4982363;28;20049;-61
2024/02/20 08:18:08;;;;;;;10.15;2.50;;;7.80;86.90;;;;;;4984123;28;20038;-61
2024/02/20 08:20:34;;;;;;;10.52;2.10;;;7.80;86.90;;;;;;4984240;28;20658;-60
2024/02/20 08:22:59;;;;;;;8.15;2.00;;;7.90;87.10;;;;;;4980830;28;20089;-62
2024/02/20 08:25:25;;;;;;;8.63;2.47;;;7.90;86.70;;;;;;4989092;28;20569;-62
2024/02/20 08:27:51;;;;;;;10.98;2.10;;;7.90;86.40;;;;;;4983615;28;20039;-62
2024/02/20 08:30:17;;;;;;;8.90;2.40;;;7.90;86.30;;;;;;4984957;28;20117;-61
2024/02/20 08:32:44;;;;;;;9.57;2.30;;;8.00;86.40;;;;;;4982718;28;20042;-62
2024/02/20 08:35:10;;;;;;;8.93;2.10;;;8.00;86.10;;;;;;4983179;28;20038;-62
2024/02/20 08:37:35;;;;;;;6.97;2.10;;;8.00;85.90;;;;;;4987434;28;20096;-62
2024/02/20 08:40:01;;;;;;;14.90;2.45;;;8.00;85.90;;;;;;4982630;28;20427;-59
2024/02/20 08:42:27;;;;;;;10.65;2.15;;;8.00;85.60;;;;;;4985550;28;20030;-61
2024/02/20 08:44:52;;;;;;;10.90;2.55;;;8.00;85.00;;;;;;4980933;28;20499;-61
2024/02/20 08:47:18;;;;;;;12.05;2.42;;;8.10;84.80;;;;;;4984736;28;20027;-59
2024/02/20 08:49:44;;;;;;;9.20;2.30;;;8.10;84.70;;;;;;4983423;28;20410;-61
2024/02/20 08:52:10;;;;;;;11.20;2.13;;;8.10;84.60;;;;;;4982722;28;20027;-61
2024/02/20 08:54:35;;;;;;;11.70;2.13;;;8.10;84.70;;;;;;4986763;28;20038;-62
2024/02/20 08:57:01;;;;;;;13.68;2.22;;;8.10;84.50;;;;;;4982513;28;20522;-62
2024/02/20 08:59:28;;;;;;;14.23;2.50;;;8.10;84.50;;;;;;4984472;28;20387;-62
2024/02/20 09:01:53;;;;;;;10.10;2.20;;;8.20;84.70;;;;;;4981276;28;20042;-61
2024/02/20 09:04:19;;;;;;;11.02;2.10;;;8.20;84.60;;;;;;4983742;28;20030;-62
2024/02/20 09:06:46;;;;;;;9.95;1.73;;;8.20;84.40;;;;;;4984199;28;20513;-61
2024/02/20 09:09:12;;;;;;;8.13;2.13;;;8.20;84.30;;;;;;4989007;28;20049;-62
2024/02/20 09:11:37;;;;;;;9.02;2.20;;;8.30;83.90;;;;;;4985499;28;20030;-61
2024/02/20 09:14:03;;;;;;;9.63;1.90;;;8.30;83.30;;;;;;4985114;28;20030;-61
2024/02/20 09:16:28;;;;;;;12.93;2.60;;;8.40;83.40;;;;;;4985424;28;20038;-61
2024/02/20 09:18:54;;;;;;;11.07;2.30;;;8.40;82.70;;;;;;4980467;28;20506;-61
2024/02/20 09:21:19;;;;;;;6.13;1.55;;;8.50;82.70;;;;;;4987372;28;20088;-59
2024/02/20 09:23:45;;;;;;;7.85;1.80;;;8.50;80.90;;;;;;4989347;28;20084;-61
2024/02/20 09:26:13;;;;;;;11.32;1.77;;;8.50;80.10;;;;;;4984383;28;20027;-61
2024/02/20 09:28:39;;;;;;;13.02;1.92;;;8.60;81.00;;;;;;4984715;28;20096;-62
2024/02/20 09:31:05;;;;;;;10.73;1.98;;;8.60;80.90;;;;;;4984055;28;20042;-62
2024/02/20 09:33:32;;;;;;;8.13;1.77;;;8.70;80.60;;;;;;4983779;28;20113;-62
2024/02/20 09:35:57;;;;;;;7.57;1.88;;;8.70;80.80;;;;;;4982729;28;20035;-60
2024/02/20 09:38:23;;;;;;;7.15;1.73;;;8.80;80.20;;;;;;4984005;28;20049;-62
2024/02/20 09:40:49;;;;;;;9.82;1.80;;;8.90;79.80;;;;;;4988048;28;20401;-62
2024/02/20 09:43:19;;;;;;;7.95;1.73;;;9.00;78.70;;;;;;4982957;28;20066;-61
2024/02/20 09:45:49;;;;;;;10.48;1.80;;;9.00;77.90;;;;;;4984822;28;20034;-61
2024/02/20 09:48:15;;;;;;;7.43;1.50;;;9.00;77.30;;;;;;4982473;28;20062;-61
2024/02/20 09:50:42;;;;;;;5.40;1.38;;;9.10;77.70;;;;;;4984613;28;20050;-62
2024/02/20 09:53:11;;;;;;;7.13;1.83;;;9.10;77.40;;;;;;4982424;28;20406;-62
2024/02/20 09:55:37;;;;;;;6.65;1.60;;;9.10;77.20;;;;;;4981658;28;20043;-62
2024/02/20 09:58:03;;;;;;;9.32;1.42;;;9.10;76.10;;;;;;4982861;28;20035;-61
2024/02/20 10:00:28;;;;;;;7.20;1.50;;;9.20;76.60;;;;;;4986136;28;20517;-62
2024/02/20 10:02:56;;;;;;;6.50;1.38;;;9.20;76.50;;;;;;4985759;28;20467;-62
2024/02/20 10:05:24;;;;;;;6.82;1.38;;;9.20;75.40;;;;;;4984890;28;20573;-61
2024/02/20 10:08:00;;;;;;;6.85;1.55;;;9.30;75.40;;;;;;4984178;28;20137;-62
2024/02/20 10:10:27;;;;;;;7.07;1.42;;;9.20;74.60;;;;;;4980322;28;20081;-61
2024/02/20 10:12:59;;;;;;;8.55;1.65;;;9.30;74.40;;;;;;4981695;28;20521;-61
2024/02/20 10:15:25;;;;;;;5.47;1.02;;;9.30;74.20;;;;;;4981127;28;20112;-62
2024/02/20 10:18:01;;;;;;;6.43;1.60;;;9.30;73.50;;;;;;4983587;28;20498;-61
2024/02/20 10:20:27;;;;;;;7.45;1.15;;;9.30;73.20;;;;;;4981805;28;20043;-62
2024/02/20 10:23:13;;;;;;;6.78;1.45;;;9.30;73.70;;;;;;4983322;28;20039;-62
2024/02/20 10:25:39;;;;;;;4.60;1.10;;;9.30;73.10;;;;;;4984741;28;20133;-61
2024/02/20 10:28:05;;;;;;;7.88;1.55;;;9.30;73.90;;;;;;4981118;28;20086;-62
2024/02/20 10:30:32;;;;;;;5.93;1.48;;;9.30;73.70;;;;;;4985603;28;20130;-61
2024/02/20 10:32:58;;;;;;;5.93;1.17;;;9.30;74.00;;;;;;4980901;28;20423;-61
2024/02/20 10:35:25;;;;;;;7.82;1.17;;;9.20;73.50;;;;;;4985470;28;20113;-62
2024/02/20 10:38:01;;;;;;;4.20;1.20;;;9.20;73.00;;;;;;4982503;28;20146;-61
2024/02/20 10:40:27;;;;;;;9.80;1.30;;;9.20;72.30;;;;;;4988785;28;20026;-62
2024/02/20 10:42:55;;;;;;;6.65;1.83;;;9.20;73.00;;;;;;4986926;28;20134;-61
2024/02/20 10:45:23;;;;;;;5.47;1.92;;;9.20;72.50;;;;;;4986047;28;20035;-62
2024/02/20 10:47:51;;;;;;;7.78;1.90;;;9.20;73.70;;;;;;4983558;28;20034;-61
2024/02/20 10:50:16;;;;;;;6.15;1.30;;;9.20;74.20;;;;;;4989084;28;20045;-62
2024/02/20 10:52:42;;;;;;;9.50;1.67;;;9.30;73.20;;;;;;4986869;28;20030;-62
2024/02/20 10:55:12;;;;;;;6.32;1.20;;;9.30;72.60;;;;;;4984874;28;20031;-61
2024/02/20 10:57:42;;;;;;;6.53;1.58;;;9.30;72.00;;;;;;4986191;28;20061;-61
2024/02/20 11:00:09;;;;;;;9.75;1.52;;;9.30;70.80;;;;;;4985654;28;20046;-62
2024/02/20 11:02:46;;;;;;;8.43;1.75;;;9.50;70.50;;;;;;4989148;28;20030;-61
2024/02/20 11:05:13;;;;;;;8.20;1.75;;;9.50;69.50;;;;;;4984824;28;20425;-61
2024/02/20 11:07:39;;;;;;;8.68;1.50;;;9.50;70.20;;;;;;4985330;28;20134;-62
2024/02/20 11:10:10;;;;;;;5.15;1.50;;;9.60;70.30;;;;;;4988168;28;20207;-62
2024/02/20 11:12:36;;;;;;;5.47;1.10;;;9.60;70.60;;;;;;4985315;28;20179;-62
2024/02/20 11:15:32;;;;;;;6.68;1.40;;;9.70;69.50;;;;;;4987749;28;20038;-62
2024/02/20 11:17:58;;;;;;;9.10;1.40;;;9.70;68.60;;;;;;4977336;28;20030;-60
2024/02/20 11:20:25;;;;;;;5.80;1.17;;;9.70;68.50;;;;;;4986715;28;20034;-61
2024/02/20 11:22:51;;;;;;;7.50;1.40;;;9.80;68.80;;;;;;4988066;28;20109;-63
2024/02/20 11:25:22;;;;;;;10.00;1.40;;;9.80;69.40;;;;;;4988927;28;20066;-60
2024/02/20 11:27:48;;;;;;;7.90;1.30;;;9.80;69.20;;;;;;4992536;28;20455;-62
2024/02/20 11:30:19;;;;;;;7.20;1.40;;;9.80;69.40;;;;;;4987361;28;20058;-62
2024/02/20 11:32:46;;;;;;;6.63;1.48;;;9.90;69.70;;;;;;4981987;28;20038;-61
2024/02/20 11:35:38;;;;;;;6.22;1.35;;;9.90;70.00;;;;;;4987556;28;20047;-62
2024/02/20 11:38:06;;;;;;;7.65;1.40;;;10.00;68.60;;;;;;4984422;28;20043;-62
2024/02/20 11:40:32;;;;;;;5.63;1.73;;;10.00;69.80;;;;;;4988430;28;20085;-62
2024/02/20 11:43:00;;;;;;;5.05;1.38;;;10.00;70.10;;;;;;4988281;28;20034;-61
2024/02/20 11:45:29;;;;;;;6.15;1.13;;;10.00;69.20;;;;;;4986868;28;20042;-62
2024/02/20 11:48:08;;;;;;;5.88;1.30;;;10.00;68.50;;;;;;4984962;28;20031;-61
2024/02/20 11:50:38;;;;;;;4.70;0.98;;;10.00;67.80;;;;;;4985769;28;20537;-62
2024/02/20 11:53:05;;;;;;;6.07;1.40;;;10.10;68.10;;;;;;4983064;28;20419;-62
2024/02/20 11:55:32;;;;;;;6.35;1.38;;;10.10;68.00;;;;;;4986888;28;20062;-61
2024/02/20 11:58:04;;;;;;;5.10;1.48;;;10.10;67.00;;;;;;4982862;28;20031;-62
2024/02/20 12:00:32;;;;;;;6.88;1.75;;;10.20;66.60;;;;;;4987999;28;20113;-62
2024/02/20 12:03:02;;;;;;;6.07;2.20;;;10.20;66.40;;;;;;4983909;28;20479;-62
2024/02/20 12:05:28;;;;;;;9.73;1.75;;;10.20;66.40;;;;;;4985626;28;20117;-61
2024/02/20 12:07:55;;;;;;;9.70;3.75;;;10.20;66.60;;;;;;4984142;28;20091;-62
2024/02/20 12:10:24;;;;;;;10.43;4.53;;;10.20;67.20;;;;;;4981175;28;20034;-61
2024/02/20 12:12:51;;;;;;;8.30;3.10;;;10.30;67.10;;;;;;4983163;28;20034;-61
2024/02/20 12:15:17;;;;;;;11.43;3.20;;;10.30;66.70;;;;;;4985033;28;20085;-62
2024/02/20 12:17:44;;;;;;;5.88;1.40;;;10.30;67.00;;;;;;4987472;28;20589;-63
2024/02/20 12:20:11;;;;;;;7.20;2.78;;;10.40;67.10;;;;;;4984668;28;20056;-62
2024/02/20 12:22:38;;;;;;;7.70;1.50;;;10.40;66.60;;;;;;4987912;28;20561;-62
2024/02/20 12:25:08;;;;;;;9.00;2.60;;;10.40;67.10;;;;;;4990218;28;20047;-61
2024/02/20 12:27:35;;;;;;;8.32;2.88;;;10.50;66.60;;;;;;4990570;28;20038;-62
2024/02/20 12:30:01;;;;;;;7.00;2.13;;;10.50;66.90;;;;;;4982921;28;20142;-62
2024/02/20 12:32:27;;;;;;;6.43;1.40;;;10.50;66.00;;;;;;4984225;28;20428;-62
2024/02/20 12:34:53;;;;;;;12.20;3.50;;;10.50;66.40;;;;;;4984675;28;20035;-61
2024/02/20 12:37:21;;;;;;;9.02;2.35;;;10.60;66.40;;;;;;4985531;28;20034;-61
2024/02/20 12:39:46;;;;;;;5.15;1.70;;;10.50;66.60;;;;;;4984451;28;20541;-62
2024/02/20 12:42:12;;;;;;;5.82;1.50;;;10.50;66.70;;;;;;4984739;28;20039;-60
2024/02/20 12:44:38;;;;;;;6.88;1.67;;;10.50;66.70;;;;;;4982960;28;20041;-63
2024/02/20 12:47:04;;;;;;;7.65;1.80;;;10.50;67.40;;;;;;4984300;28;20034;-62
2024/02/20 12:49:31;;;;;;;5.93;1.48;;;10.50;67.50;;;;;;4985050;28;20061;-62
2024/02/20 12:51:57;;;;;;;6.15;1.90;;;10.60;68.00;;;;;;4986624;28;20030;-63